Terminal Aerodrome Forecast
Issued by NWS

Home | Current Version | Previous Version | Graphics & Text | Print | Product List | Glossary On
Versions: 1 2 3 4 5 6 7 8 9 10 11 12 13 14
000
FTUS43 KUNR 261728
TAFGCC
TAF
KGCC 261728Z 2618/2718 19013KT P6SM FEW015
     FM262300 35007KT P6SM VCTS BKN070CB OVC100
     FM270200 23005KT P6SM SCT150=

USA.gov is the U.S. government's official web portal to all federal, state and local government web resources and services.